Time;durP1;ratioP1;P1;durP2;ratioP2;P2;SDS_P1;SDS_P2;PMS_P1;PMS_P2;Temp;Humidity;BMP_temperature;BMP_pressure;BME280_temperature;BME280_humidity;BME280_pressure;Samples;Min_cycle;Max_cycle;Signal;HPM_P1;HPM_P2
2023/08/30 00:02:11;;;;;;;11.93;8.50;;;14.20;99.90;;;;;;5062560;28;20412;-86
2023/08/30 00:04:37;;;;;;;10.32;8.13;;;14.10;99.90;;;;;;5062420;28;20032;-86
2023/08/30 00:11:30;;;;;;;11.68;8.95;;;14.30;99.90;;;;;;5008032;28;20070;-86
2023/08/30 00:14:05;;;;;;;10.85;8.57;;;14.00;99.90;;;;;;4992649;28;20512;-86
2023/08/30 00:16:33;;;;;;;;;;;13.90;99.90;;;;;;4995947;28;20080;-86
2023/08/30 00:19:14;;;;;;;12.60;9.00;;;13.90;99.90;;;;;;5013582;28;20387;-86
2023/08/30 00:21:42;;;;;;;13.10;9.77;;;13.80;99.90;;;;;;5095915;28;20044;-85
2023/08/30 00:24:09;;;;;;;13.35;10.40;;;13.80;99.90;;;;;;5083063;28;20040;-85
2023/08/30 00:26:36;;;;;;;14.20;10.30;;;13.80;99.90;;;;;;5081901;28;20563;-85
2023/08/30 00:29:03;;;;;;;14.20;10.13;;;13.70;99.90;;;;;;5082226;28;20139;-86
2023/08/30 00:31:29;;;;;;;12.57;9.60;;;13.70;99.90;;;;;;5081957;28;20498;-86
2023/08/30 00:37:36;;;;;;;14.80;9.90;;;13.60;99.90;;;;;;5112697;28;20043;-86
2023/08/30 00:40:25;;;;;;;13.02;10.07;;;13.50;99.90;;;;;;5115502;28;20415;-86
2023/08/30 00:42:52;;;;;;;12.93;9.75;;;13.50;99.90;;;;;;5098946;28;20043;-85
2023/08/30 00:45:19;;;;;;;14.15;10.75;;;13.50;99.90;;;;;;5066000;28;20116;-85
2023/08/30 00:47:46;;;;;;;14.07;10.57;;;13.50;99.90;;;;;;5058533;28;20515;-86
2023/08/30 00:50:13;;;;;;;15.50;11.52;;;13.40;99.90;;;;;;5091694;28;20036;-85
2023/08/30 00:52:40;;;;;;;16.00;11.77;;;13.40;99.90;;;;;;5091317;28;20102;-86
2023/08/30 00:55:07;;;;;;;16.17;11.02;;;13.40;99.90;;;;;;5058488;28;20040;-85
2023/08/30 00:57:34;;;;;;;16.98;12.00;;;13.40;99.90;;;;;;5073996;28;20158;-86
2023/08/30 01:00:03;;;;;;;15.57;11.77;;;13.40;99.90;;;;;;5091195;28;20040;-86
2023/08/30 01:02:30;;;;;;;15.30;11.07;;;13.40;99.90;;;;;;5074495;28;20093;-86
2023/08/30 01:04:58;;;;;;;15.57;11.43;;;13.40;99.90;;;;;;5091105;28;20041;-86
2023/08/30 01:07:27;;;;;;;14.88;11.02;;;13.40;99.90;;;;;;5074619;28;20047;-86
2023/08/30 01:09:54;;;;;;;15.45;11.10;;;13.30;99.90;;;;;;5074650;28;20045;-85
2023/08/30 01:12:34;;;;;;;15.73;11.43;;;13.30;99.90;;;;;;5091483;28;20055;-86
2023/08/30 01:18:40;;;;;;;16.35;11.00;;;13.30;99.90;;;;;;5131107;28;20100;-85
2023/08/30 01:21:13;;;;;;;17.52;11.32;;;13.30;99.90;;;;;;5098784;28;20065;-85
2023/08/30 01:23:49;;;;;;;16.13;10.95;;;13.30;99.90;;;;;;5096568;28;20048;-85
2023/08/30 01:26:38;;;;;;;17.52;12.40;;;13.30;99.90;;;;;;5094373;28;20055;-84
2023/08/30 01:29:05;;;;;;;16.58;12.35;;;13.30;99.90;;;;;;5094016;28;20476;-85
2023/08/30 01:31:33;;;;;;;16.48;11.73;;;13.20;99.90;;;;;;5060386;28;20078;-85
2023/08/30 01:34:02;;;;;;;17.05;11.73;;;13.20;99.90;;;;;;5077787;28;20131;-86
2023/08/30 01:36:30;;;;;;;18.85;12.25;;;13.20;99.90;;;;;;5093814;28;20123;-86
2023/08/30 01:39:01;;;;;;;17.95;12.57;;;13.20;99.90;;;;;;5094174;28;20039;-85
2023/08/30 01:41:29;;;;;;;15.05;11.27;;;13.20;99.90;;;;;;5105308;28;20036;-86
2023/08/30 01:50:58;;;;;;;18.05;12.90;;;13.10;99.90;;;;;;5103904;28;20404;-85
2023/08/30 01:53:26;;;;;;;18.67;11.70;;;13.10;99.90;;;;;;5105373;28;20044;-86
2023/08/30 01:55:53;;;;;;;15.80;11.82;;;13.10;99.90;;;;;;5077585;28;20097;-86
2023/08/30 01:58:20;;;;;;;18.60;12.55;;;13.00;99.90;;;;;;5060639;28;20040;-86
2023/08/30 02:00:47;;;;;;;18.27;13.13;;;13.00;99.90;;;;;;5110167;28;20043;-85
2023/08/30 02:03:14;;;;;;;17.85;12.70;;;13.00;99.90;;;;;;5077100;28;20048;-85
2023/08/30 02:06:04;;;;;;;17.85;12.65;;;12.90;99.90;;;;;;5076472;28;20060;-85
2023/08/30 02:08:46;;;;;;;16.17;12.23;;;12.90;99.90;;;;;;5093213;28;20040;-86
2023/08/30 02:11:21;;;;;;;18.15;12.55;;;12.90;99.90;;;;;;5093495;28;20557;-85
2023/08/30 02:13:50;;;;;;;20.25;12.88;;;12.80;99.90;;;;;;5093144;28;20055;-86
2023/08/30 02:16:17;;;;;;;19.48;12.80;;;12.80;99.90;;;;;;5076948;28;20136;-86
2023/08/30 02:18:45;;;;;;;17.42;12.40;;;12.80;99.90;;;;;;5092830;28;20102;-85
2023/08/30 02:21:12;;;;;;;17.85;11.98;;;12.80;99.90;;;;;;5093448;28;20032;-85
2023/08/30 02:23:39;;;;;;;17.10;12.85;;;12.70;99.90;;;;;;5067901;28;20036;-88
2023/08/30 02:26:06;;;;;;;17.52;12.02;;;12.70;99.90;;;;;;5056427;28;20060;-85
2023/08/30 02:28:33;;;;;;;17.73;12.77;;;12.70;99.90;;;;;;5040175;28;20151;-85
2023/08/30 02:30:59;;;;;;;16.10;12.30;;;12.70;99.90;;;;;;5062396;28;20092;-85
2023/08/30 02:33:26;;;;;;;17.60;12.88;;;12.60;99.90;;;;;;5096772;28;20046;-85
2023/08/30 02:35:53;;;;;;;15.02;11.55;;;12.60;99.90;;;;;;5079820;28;20088;-85
2023/08/30 02:38:20;;;;;;;19.00;12.70;;;12.60;99.90;;;;;;5080363;28;20040;-84
2023/08/30 02:40:47;;;;;;;15.57;11.68;;;12.50;99.90;;;;;;5096405;28;20034;-85
2023/08/30 02:43:14;;;;;;;18.40;12.63;;;12.50;99.90;;;;;;5090404;28;20036;-85
2023/08/30 02:45:41;;;;;;;16.55;11.90;;;12.50;99.90;;;;;;5059819;28;20400;-85
2023/08/30 02:48:07;;;;;;;17.48;11.73;;;12.40;99.90;;;;;;5076275;28;20040;-85
2023/08/30 02:50:34;;;;;;;19.55;12.50;;;12.40;99.90;;;;;;5092394;28;20047;-85
2023/08/30 02:53:01;;;;;;;15.18;11.35;;;12.40;99.90;;;;;;5060026;28;20125;-85
2023/08/30 02:55:28;;;;;;;15.45;11.60;;;12.40;99.90;;;;;;5100840;28;20044;-85
2023/08/30 03:01:49;;;;;;;17.35;12.15;;;12.30;99.90;;;;;;5064851;28;20045;-84
2023/08/30 03:04:16;;;;;;;16.17;11.68;;;12.30;99.90;;;;;;5048413;28;20076;-84
2023/08/30 03:06:42;;;;;;;20.90;12.00;;;12.30;99.90;;;;;;5109902;28;20464;-84
2023/08/30 03:09:09;;;;;;;17.95;13.02;;;12.20;99.90;;;;;;5079643;28;20495;-84
2023/08/30 03:11:36;;;;;;;16.30;12.18;;;12.20;99.90;;;;;;5112663;28;20043;-85
2023/08/30 03:14:03;;;;;;;18.85;12.52;;;12.20;99.90;;;;;;5079784;28;20046;-84
2023/08/30 03:16:30;;;;;;;16.88;12.52;;;12.30;99.90;;;;;;5079928;28;20104;-84
2023/08/30 03:18:57;;;;;;;16.63;11.38;;;12.30;99.90;;;;;;5095832;28;20050;-85
2023/08/30 03:21:24;;;;;;;16.70;12.02;;;12.20;99.90;;;;;;5096568;28;20118;-85
2023/08/30 03:23:51;;;;;;;17.02;12.13;;;12.20;99.90;;;;;;5112671;28;20181;-85
2023/08/30 03:26:17;;;;;;;17.17;11.45;;;12.20;99.90;;;;;;5078615;28;20055;-85
2023/08/30 03:28:44;;;;;;;16.67;11.45;;;12.20;99.90;;;;;;5079215;28;20044;-85
2023/08/30 03:31:21;;;;;;;15.98;11.77;;;12.20;99.90;;;;;;5112878;28;20441;-85
2023/08/30 03:33:49;;;;;;;14.93;10.77;;;12.20;99.90;;;;;;5096196;28;20036;-85
2023/08/30 03:36:34;;;;;;;16.25;11.25;;;12.10;99.90;;;;;;5096172;28;20032;-85
2023/08/30 03:39:01;;;;;;;14.93;10.82;;;12.20;99.90;;;;;;5095635;28;20043;-84
2023/08/30 03:41:27;;;;;;;14.27;11.07;;;12.00;99.90;;;;;;5079588;28;20036;-84
2023/08/30 03:44:09;;;;;;;15.80;11.55;;;12.00;99.90;;;;;;5079182;28;20076;-85
2023/08/30 03:46:42;;;;;;;16.75;11.02;;;12.00;99.90;;;;;;5079237;28;20885;-85
2023/08/30 03:49:09;;;;;;;16.05;11.43;;;12.00;99.90;;;;;;5095755;28;20043;-85
2023/08/30 03:51:35;;;;;;;16.27;11.30;;;12.00;99.90;;;;;;5079612;28;20047;-84
2023/08/30 03:54:17;;;;;;;15.80;10.75;;;11.90;99.90;;;;;;5079168;28;20043;-85
2023/08/30 03:56:45;;;;;;;19.00;11.27;;;11.90;99.90;;;;;;5082688;28;20035;-85
2023/08/30 03:59:12;;;;;;;15.30;10.55;;;11.90;99.90;;;;;;5115826;28;20487;-85
2023/08/30 04:01:38;;;;;;;15.07;11.05;;;11.90;99.90;;;;;;5082733;28;20043;-84
2023/08/30 04:04:05;;;;;;;15.52;10.88;;;11.90;99.90;;;;;;5115793;28;20526;-84
2023/08/30 04:06:32;;;;;;;14.13;11.00;;;11.90;99.90;;;;;;5082711;28;20036;-85
2023/08/30 04:08:58;;;;;;;14.40;10.13;;;11.90;99.90;;;;;;5082423;28;20488;-85
2023/08/30 04:11:25;;;;;;;13.27;10.23;;;11.80;99.90;;;;;;5078148;28;20035;-84
2023/08/30 04:13:52;;;;;;;16.88;10.80;;;11.80;99.90;;;;;;5062601;28;20492;-84
2023/08/30 04:16:19;;;;;;;18.05;10.80;;;11.80;99.90;;;;;;5062838;28;20483;-84
2023/08/30 04:18:46;;;;;;;14.35;10.48;;;11.80;99.90;;;;;;5062258;28;20090;-85
2023/08/30 04:21:12;;;;;;;17.35;10.80;;;11.80;99.90;;;;;;5062454;28;20043;-85
2023/08/30 04:23:39;;;;;;;14.98;9.85;;;11.80;99.90;;;;;;5095642;28;20056;-85
2023/08/30 04:26:06;;;;;;;14.85;9.60;;;11.80;99.90;;;;;;5095061;28;20556;-85
2023/08/30 04:28:32;;;;;;;14.57;10.27;;;11.80;99.90;;;;;;5095256;28;20492;-85
2023/08/30 04:30:59;;;;;;;15.73;10.10;;;11.80;99.90;;;;;;5061938;28;20817;-85
2023/08/30 04:33:26;;;;;;;13.23;9.50;;;11.70;99.90;;;;;;5061853;28;20496;-85
2023/08/30 04:35:54;;;;;;;13.80;9.70;;;11.70;99.90;;;;;;5061760;28;20488;-84
2023/08/30 04:38:21;;;;;;;14.88;9.63;;;11.70;99.90;;;;;;5094973;28;20083;-84
2023/08/30 04:40:48;;;;;;;13.73;10.07;;;11.70;99.90;;;;;;5078274;28;20063;-85
2023/08/30 04:43:15;;;;;;;12.63;9.60;;;11.70;99.90;;;;;;5078385;28;20040;-85
2023/08/30 04:45:51;;;;;;;15.75;9.93;;;11.70;99.90;;;;;;5111561;28;20036;-84
2023/08/30 04:48:18;;;;;;;13.48;9.35;;;11.60;99.90;;;;;;5078564;28;20043;-85
2023/08/30 04:50:44;;;;;;;14.10;9.38;;;11.60;99.90;;;;;;5078851;28;20047;-84
2023/08/30 04:53:23;;;;;;;13.38;9.57;;;11.60;99.90;;;;;;5077591;28;20040;-84
2023/08/30 04:56:11;;;;;;;13.60;9.68;;;11.60;99.90;;;;;;5095010;28;20069;-84
2023/08/30 05:13:46;;;;;;;14.50;9.90;;;11.60;99.90;;;;;;5027884;26;20054;-89
2023/08/30 05:16:16;;;;;;;15.02;10.30;;;11.60;99.90;;;;;;5012164;28;20491;-90
2023/08/30 05:18:43;;;;;;;18.17;9.73;;;11.60;99.90;;;;;;4980685;28;20043;-89
2023/08/30 05:21:09;;;;;;;13.88;10.00;;;11.60;99.90;;;;;;4996191;28;20109;-88
2023/08/30 05:23:36;;;;;;;20.33;10.70;;;11.60;99.90;;;;;;4996494;28;20038;-89
2023/08/30 05:26:03;;;;;;;15.65;10.40;;;11.70;99.90;;;;;;5011973;28;20042;-89
2023/08/30 05:28:29;;;;;;;16.00;10.82;;;11.70;99.90;;;;;;4976850;28;20043;-89
2023/08/30 05:30:56;;;;;;;15.32;10.43;;;11.70;99.90;;;;;;4976970;28;20522;-88
2023/08/30 05:33:23;;;;;;;14.13;9.95;;;11.80;99.90;;;;;;4977168;28;20039;-89
2023/08/30 05:35:56;;;;;;;16.88;10.75;;;11.80;99.90;;;;;;5008898;28;20133;-89
2023/08/30 05:38:22;;;;;;;16.75;10.43;;;11.90;99.90;;;;;;4992832;28;20117;-89
2023/08/30 05:40:55;;;;;;;17.25;11.00;;;11.90;99.90;;;;;;4995896;28;20498;-89
2023/08/30 05:43:22;;;;;;;18.48;10.40;;;12.00;99.90;;;;;;5011761;28;20046;-88
2023/08/30 05:45:48;;;;;;;15.70;11.00;;;12.00;99.90;;;;;;5012138;28;20129;-90
2023/08/30 05:48:15;;;;;;;17.02;10.35;;;12.10;99.90;;;;;;4996364;28;20045;-89
2023/08/30 05:50:48;;;;;;;16.25;10.50;;;12.20;99.90;;;;;;4995855;28;20042;-89
2023/08/30 05:53:14;;;;;;;14.40;10.00;;;12.10;99.90;;;;;;4995779;28;20568;-89
2023/08/30 05:55:41;;;;;;;14.60;9.90;;;12.20;99.90;;;;;;4979902;28;20129;-89
2023/08/30 05:58:08;;;;;;;15.05;10.02;;;12.30;99.90;;;;;;4995547;28;20046;-89
2023/08/30 06:00:35;;;;;;;14.35;9.60;;;12.30;99.90;;;;;;4979718;28;20045;-89
2023/08/30 06:03:02;;;;;;;18.63;10.27;;;12.30;99.90;;;;;;5011566;28;20038;-89
2023/08/30 06:05:29;;;;;;;15.00;9.32;;;12.40;99.90;;;;;;4980044;28;20042;-89
2023/08/30 06:07:57;;;;;;;15.40;9.70;;;12.40;99.90;;;;;;4979789;28;20052;-90
2023/08/30 06:10:23;;;;;;;15.38;9.38;;;12.50;99.90;;;;;;4995440;28;20046;-90
2023/08/30 06:12:50;;;;;;;14.15;9.93;;;12.60;99.90;;;;;;5027627;28;20416;-89
2023/08/30 06:15:17;;;;;;;17.23;9.38;;;12.60;99.90;;;;;;4989938;28;20047;-90
2023/08/30 06:17:44;;;;;;;14.73;9.73;;;12.60;99.90;;;;;;4956625;28;20079;-89
2023/08/30 06:20:11;;;;;;;15.43;10.25;;;12.70;99.90;;;;;;4956899;29;20038;-90
2023/08/30 06:22:38;;;;;;;14.00;9.45;;;12.70;99.90;;;;;;4972649;29;20130;-90
2023/08/30 06:25:06;;;;;;;13.05;9.25;;;12.80;99.90;;;;;;4956908;29;20077;-90
2023/08/30 06:27:33;;;;;;;15.85;9.90;;;12.90;99.90;;;;;;4975699;29;20134;-90
2023/08/30 06:30:00;;;;;;;12.90;8.43;;;13.00;99.90;;;;;;4941265;29;20085;-90
2023/08/30 06:32:26;;;;;;;13.48;9.35;;;13.00;99.90;;;;;;4956333;29;20089;-89
2023/08/30 06:34:53;;;;;;;12.98;9.60;;;13.10;99.90;;;;;;4941706;29;20043;-89
2023/08/30 06:37:20;;;;;;;14.93;9.85;;;13.10;99.90;;;;;;4940659;29;20189;-89
2023/08/30 06:39:46;;;;;;;15.13;9.15;;;13.20;99.90;;;;;;4945054;29;20514;-89
2023/08/30 06:42:19;;;;;;;14.75;9.05;;;13.20;99.90;;;;;;4956366;29;20098;-89
2023/08/30 06:44:46;;;;;;;14.85;9.02;;;13.30;99.90;;;;;;4957088;29;20050;-89
2023/08/30 06:47:28;;;;;;;13.95;8.63;;;13.30;99.90;;;;;;4940767;29;20129;-90
2023/08/30 06:50:05;;;;;;;15.52;7.78;;;13.40;99.90;;;;;;4957096;29;20035;-89
2023/08/30 06:52:44;;;;;;;14.35;8.80;;;13.40;99.90;;;;;;4997587;28;20038;-90
2023/08/30 06:55:23;;;;;;;14.73;8.48;;;13.50;99.90;;;;;;5010701;28;20045;-85
2023/08/30 06:58:00;;;;;;;13.85;8.77;;;13.60;99.90;;;;;;5026361;28;20042;-85
2023/08/30 07:00:36;;;;;;;14.18;9.05;;;13.60;99.90;;;;;;5010291;28;20050;-85
2023/08/30 07:03:11;;;;;;;;;;;13.60;99.90;;;;;;5010783;28;20047;-86
2023/08/30 07:06:19;;;;;;;14.90;8.80;;;13.70;99.90;;;;;;4975519;28;20382;-85
2023/08/30 07:08:46;;;;;;;14.82;9.43;;;13.60;99.90;;;;;;4987435;29;20415;-86
2023/08/30 07:15:34;;;;;;;14.13;8.45;;;13.70;99.90;;;;;;4969948;29;20700;-85
2023/08/30 07:21:43;;;;;;;14.90;8.70;;;14.10;99.90;;;;;;4986242;29;20424;-86
2023/08/30 07:24:27;;;;;;;13.40;8.23;;;14.20;99.90;;;;;;4969956;29;20555;-85
2023/08/30 07:27:08;;;;;;;14.52;8.05;;;14.20;99.90;;;;;;4954208;29;20043;-84
2023/08/30 07:40:26;;;;;;;14.80;8.43;;;14.40;99.90;;;;;;4973568;29;20062;-85
2023/08/30 07:42:53;;;;;;;15.27;8.23;;;14.40;99.90;;;;;;4960233;29;20087;-85
2023/08/30 07:45:25;;;;;;;15.60;8.07;;;14.50;99.90;;;;;;4954839;29;20464;-85
2023/08/30 07:48:04;;;;;;;13.18;7.53;;;14.50;99.90;;;;;;4939040;29;20046;-85
2023/08/30 07:50:31;;;;;;;16.50;8.38;;;14.50;99.90;;;;;;4955136;29;20500;-85
2023/08/30 07:52:58;;;;;;;13.48;7.05;;;14.60;99.90;;;;;;4967755;28;20045;-84
2023/08/30 07:55:25;;;;;;;14.55;8.40;;;14.70;99.90;;;;;;4962511;29;20035;-83
2023/08/30 07:57:51;;;;;;;15.75;7.95;;;14.70;99.90;;;;;;4974051;29;20130;-83
2023/08/30 08:00:18;;;;;;;14.38;7.82;;;14.80;99.90;;;;;;4989905;29;20047;-81
2023/08/30 08:02:47;;;;;;;14.07;7.60;;;14.90;99.90;;;;;;4992470;28;20035;-82
2023/08/30 08:05:18;;;;;;;16.75;8.55;;;15.10;99.90;;;;;;4992584;28;20070;-83
2023/08/30 08:08:19;;;;;;;11.75;7.47;;;15.10;99.90;;;;;;4993436;28;20492;-82
2023/08/30 08:10:55;;;;;;;13.52;8.40;;;15.20;99.90;;;;;;4974547;29;20816;-83
2023/08/30 08:13:27;;;;;;;13.07;8.23;;;15.20;99.90;;;;;;4997098;28;20054;-83
2023/08/30 08:16:01;;;;;;;14.57;8.00;;;15.20;99.90;;;;;;4984799;28;20125;-86
2023/08/30 08:18:50;;;;;;;13.82;8.05;;;15.30;99.90;;;;;;4976387;28;20389;-83
2023/08/30 08:21:17;;;;;;;12.15;7.70;;;15.10;99.90;;;;;;4976505;28;20399;-84
2023/08/30 08:23:44;;;;;;;14.68;7.80;;;15.30;99.90;;;;;;4961141;28;20053;-85
2023/08/30 08:26:10;;;;;;;14.65;8.02;;;15.40;99.90;;;;;;4945816;28;20940;-83
2023/08/30 08:28:37;;;;;;;11.63;8.10;;;15.40;99.90;;;;;;4991845;28;20050;-85
2023/08/30 08:31:04;;;;;;;14.70;8.75;;;15.30;99.90;;;;;;4963502;28;20101;-85
2023/08/30 08:33:31;;;;;;;13.55;8.25;;;15.30;99.90;;;;;;4964332;28;20042;-85
2023/08/30 08:35:57;;;;;;;12.07;7.95;;;15.30;99.90;;;;;;4952761;28;20090;-85
2023/08/30 08:38:27;;;;;;;13.35;8.15;;;15.30;99.90;;;;;;4960406;28;20081;-85
2023/08/30 08:41:03;;;;;;;13.52;8.15;;;15.40;99.90;;;;;;4976248;28;20452;-85
2023/08/30 08:43:32;;;;;;;13.35;8.18;;;15.40;99.90;;;;;;4960603;28;20051;-85
2023/08/30 08:46:06;;;;;;;14.70;8.63;;;15.50;99.90;;;;;;4976948;28;20050;-84
2023/08/30 08:52:20;;;;;;;12.05;8.57;;;15.70;99.90;;;;;;5010025;28;20066;-85
2023/08/30 08:54:47;;;;;;;13.25;8.20;;;15.70;99.90;;;;;;4976710;28;20050;-82
2023/08/30 08:57:53;;;;;;;14.88;8.65;;;15.80;99.90;;;;;;4992458;28;20384;-89
2023/08/30 09:00:20;;;;;;;13.43;8.40;;;15.60;99.90;;;;;;4944228;28;20467;-89
2023/08/30 09:02:52;;;;;;;14.82;8.75;;;15.90;99.90;;;;;;4977513;28;20104;-89
2023/08/30 09:05:19;;;;;;;15.70;9.57;;;15.90;99.90;;;;;;4993882;28;20071;-89
2023/08/30 09:09:08;;;;;;;;;;;;;;;;;;;;;
2023/08/30 09:15:45;;;;;;;14.18;9.25;;;16.00;99.90;;;;;;4893595;29;20128;-89
2023/08/30 09:22:02;;;;;;;15.05;9.10;;;16.40;99.90;;;;;;4850674;29;20049;-89
2023/08/30 09:24:43;;;;;;;16.05;9.30;;;16.70;99.90;;;;;;4858280;29;20502;-88
2023/08/30 09:27:52;;;;;;;14.48;8.32;;;16.80;99.90;;;;;;4893490;29;20037;-88
2023/08/30 09:31:15;;;;;;;13.05;7.78;;;16.90;99.90;;;;;;4899155;29;20181;-88
2023/08/30 09:34:06;;;;;;;11.93;7.75;;;17.00;99.90;;;;;;4899168;29;20147;-89
2023/08/30 09:36:40;;;;;;;14.75;8.38;;;17.40;99.90;;;;;;4877491;29;20061;-89
2023/08/30 09:40:06;;;;;;;14.15;8.32;;;17.20;99.90;;;;;;4921224;29;20200;-89
2023/08/30 09:42:33;;;;;;;13.35;8.10;;;17.30;99.90;;;;;;4907260;29;20502;-89
2023/08/30 09:45:03;;;;;;;11.85;7.65;;;17.20;99.90;;;;;;4942556;29;20056;-88
2023/08/30 09:47:30;;;;;;;12.05;7.90;;;17.10;99.90;;;;;;4937611;29;20130;-88
2023/08/30 09:50:00;;;;;;;14.55;8.32;;;17.20;99.90;;;;;;4940357;29;20047;-89
2023/08/30 09:52:30;;;;;;;11.30;7.22;;;17.20;99.90;;;;;;4954740;29;20032;-88
2023/08/30 09:54:57;;;;;;;12.10;7.28;;;17.10;99.90;;;;;;4961218;29;20155;-89
2023/08/30 09:57:25;;;;;;;12.80;8.05;;;17.10;99.90;;;;;;4926534;29;20043;-89
2023/08/30 10:00:05;;;;;;;12.52;7.60;;;16.80;99.90;;;;;;4941332;29;20142;-89
2023/08/30 10:02:58;;;;;;;14.13;7.22;;;16.90;99.90;;;;;;4970577;29;20191;-86
2023/08/30 10:05:27;;;;;;;15.20;6.90;;;16.80;99.90;;;;;;4956271;29;20042;-86
2023/08/30 10:07:54;;;;;;;11.50;6.95;;;16.80;99.90;;;;;;4940646;29;20488;-86
2023/08/30 10:10:25;;;;;;;12.35;7.32;;;16.70;99.90;;;;;;4972025;29;20103;-86
2023/08/30 10:12:55;;;;;;;14.10;7.90;;;16.60;99.90;;;;;;4959785;28;20522;-89
2023/08/30 10:15:33;;;;;;;14.55;7.57;;;16.50;99.90;;;;;;4975327;28;20381;-88
2023/08/30 10:18:03;;;;;;;12.10;7.50;;;16.40;99.90;;;;;;4978023;28;20127;-89
2023/08/30 10:20:33;;;;;;;12.00;6.97;;;16.40;99.90;;;;;;4978785;28;20039;-88
2023/08/30 10:23:01;;;;;;;11.75;7.13;;;16.30;99.90;;;;;;4994790;28;20466;-90
2023/08/30 10:29:19;;;;;;;11.40;5.78;;;16.20;99.90;;;;;;5028442;28;20044;-90
2023/08/30 10:32:00;;;;;;;9.98;6.20;;;16.20;99.90;;;;;;4975538;28;20077;-90
2023/08/30 10:35:14;;;;;;;;;;;;;;;;;;;;;
2023/08/30 10:37:57;;;;;;;;;;;16.10;99.90;;;;;;4972451;29;20054;-89
2023/08/30 10:40:27;;;;;;;12.60;7.10;;;15.60;99.90;;;;;;4972214;29;20359;-89
2023/08/30 10:43:20;;;;;;;11.60;6.63;;;15.90;99.90;;;;;;4987207;28;20054;-89
2023/08/30 10:45:57;;;;;;;15.18;7.25;;;15.90;99.90;;;;;;4981205;28;20113;-89
2023/08/30 10:48:42;;;;;;;10.48;6.68;;;15.80;99.90;;;;;;4995616;28;20055;-89
2023/08/30 10:51:35;;;;;;;13.32;7.20;;;15.90;99.90;;;;;;4985839;28;20038;-90
2023/08/30 10:54:14;;;;;;;12.65;7.55;;;15.90;99.90;;;;;;5004007;28;20046;-89
2023/08/30 10:57:03;;;;;;;11.63;7.13;;;15.90;99.90;;;;;;5006271;28;20433;-89
2023/08/30 11:00:22;;;;;;;12.25;6.80;;;16.20;99.90;;;;;;5007557;28;20773;-89
2023/08/30 11:02:53;;;;;;;13.02;6.90;;;16.40;99.90;;;;;;5004167;28;20038;-89
2023/08/30 11:05:27;;;;;;;12.20;7.05;;;16.50;99.90;;;;;;4987366;28;20049;-89
2023/08/30 11:08:10;;;;;;;11.63;7.03;;;16.60;99.90;;;;;;4997527;28;20038;-91
2023/08/30 11:10:39;;;;;;;13.07;7.85;;;16.70;99.90;;;;;;4983437;28;20105;-90
2023/08/30 11:16:13;;;;;;;12.00;7.28;;;16.70;99.90;;;;;;4993190;28;20048;-88
2023/08/30 11:18:41;;;;;;;11.85;7.63;;;16.80;99.90;;;;;;4987464;28;20088;-89
2023/08/30 11:21:14;;;;;;;13.35;7.70;;;16.70;99.90;;;;;;4964112;28;20038;-89
2023/08/30 11:24:20;;;;;;;11.88;7.05;;;16.70;99.90;;;;;;5002199;28;20034;-90
2023/08/30 11:26:53;;;;;;;13.90;7.15;;;16.70;99.90;;;;;;4986053;28;20034;-88
2023/08/30 11:29:20;;;;;;;13.00;7.82;;;16.90;99.90;;;;;;4982277;28;20514;-88
2023/08/30 11:32:10;;;;;;;12.10;7.40;;;16.90;99.90;;;;;;5008107;28;20050;-88
2023/08/30 11:34:54;;;;;;;11.05;6.80;;;16.90;99.90;;;;;;4980524;28;20437;-88
2023/08/30 11:37:22;;;;;;;9.10;6.22;;;16.90;99.90;;;;;;5005468;28;20503;-88
2023/08/30 11:40:01;;;;;;;11.15;5.60;;;17.00;99.90;;;;;;5006085;28;20042;-89
2023/08/30 11:42:43;;;;;;;9.15;5.50;;;17.10;99.90;;;;;;4999161;28;20077;-89
2023/08/30 11:45:39;;;;;;;15.65;6.63;;;17.10;99.90;;;;;;4999234;28;20046;-90
2023/08/30 11:48:12;;;;;;;9.30;5.40;;;17.00;99.90;;;;;;4960631;29;20075;-88
2023/08/30 11:50:42;;;;;;;8.45;4.78;;;16.90;99.90;;;;;;4959359;29;20047;-88
2023/08/30 11:53:21;;;;;;;10.63;5.60;;;16.90;99.90;;;;;;4973823;28;20042;-92
2023/08/30 11:55:58;;;;;;;9.50;5.05;;;16.80;99.90;;;;;;4978274;28;20046;-92
2023/08/30 11:58:45;;;;;;;8.55;4.85;;;16.70;99.90;;;;;;4997071;28;20043;-90
2023/08/30 12:01:27;;;;;;;7.55;4.50;;;16.60;99.90;;;;;;4999781;28;20041;-89
2023/08/30 12:04:08;;;;;;;9.43;5.53;;;16.50;99.90;;;;;;4974498;28;20038;-90
2023/08/30 12:06:54;;;;;;;10.10;6.18;;;16.30;99.90;;;;;;4997164;28;20030;-89
2023/08/30 12:09:30;;;;;;;9.88;6.30;;;16.30;99.90;;;;;;4994271;28;20050;-88
2023/08/30 12:12:14;;;;;;;8.98;5.75;;;16.20;99.90;;;;;;4981700;28;20063;-89
2023/08/30 12:14:42;;;;;;;;;;;16.20;99.90;;;;;;4978752;28;20070;-89
2023/08/30 12:17:19;;;;;;;10.25;6.57;;;16.10;99.90;;;;;;4978025;28;19957;-89
2023/08/30 12:20:03;;;;;;;11.65;6.70;;;16.00;99.90;;;;;;4978522;28;20046;-89
2023/08/30 12:22:42;;;;;;;9.63;6.30;;;16.00;99.90;;;;;;4978837;28;20035;-89
2023/08/30 12:25:19;;;;;;;10.48;6.53;;;15.90;99.90;;;;;;4934298;29;20126;-89
2023/08/30 12:27:55;;;;;;;10.07;6.40;;;15.80;99.90;;;;;;4939713;29;20499;-89
2023/08/30 12:30:22;;;;;;;13.90;6.80;;;15.80;99.90;;;;;;4977984;28;20082;-87
2023/08/30 12:32:49;;;;;;;9.52;6.57;;;15.70;99.90;;;;;;4977513;28;20089;-87
2023/08/30 12:35:16;;;;;;;10.07;6.00;;;15.70;99.90;;;;;;4977362;28;20050;-87
2023/08/30 12:37:45;;;;;;;9.32;6.53;;;15.70;99.90;;;;;;4977488;28;20530;-87
2023/08/30 12:40:40;;;;;;;10.13;6.28;;;15.70;99.90;;;;;;4995978;28;20105;-87
2023/08/30 12:43:07;;;;;;;11.98;6.30;;;15.60;99.90;;;;;;4977237;28;20160;-86
2023/08/30 12:49:22;;;;;;;10.15;6.40;;;15.60;99.90;;;;;;4993605;28;20046;-92
2023/08/30 12:56:38;;;;;;;11.55;6.82;;;15.30;99.90;;;;;;4987674;28;20167;-92
2023/08/30 12:59:33;;;;;;;10.68;6.93;;;15.50;99.90;;;;;;4978014;28;20042;-90
2023/08/30 13:05:48;;;;;;;11.43;6.85;;;15.30;99.90;;;;;;4913139;29;20074;-92
2023/08/30 13:13:25;;;;;;;10.68;6.88;;;15.40;99.90;;;;;;4893828;29;20102;-91
2023/08/30 13:24:39;;;;;;;10.50;6.93;;;15.20;99.90;;;;;;4855858;29;20038;-89
2023/08/30 13:27:13;;;;;;;11.43;7.65;;;16.00;99.90;;;;;;4833325;29;20061;-89
2023/08/30 13:30:01;;;;;;;10.45;7.47;;;15.70;99.90;;;;;;4873994;29;20052;-89
2023/08/30 13:33:15;;;;;;;;;;;;;;;;;;;;;
2023/08/30 14:13:36;;;;;;;11.07;7.15;;;15.90;99.90;;;;;;4787164;30;20046;-82
2023/08/30 14:16:03;;;;;;;9.20;6.68;;;16.00;99.90;;;;;;4774281;30;20047;-82
2023/08/30 14:18:30;;;;;;;11.13;7.40;;;16.10;99.90;;;;;;4828581;29;20076;-82
2023/08/30 14:21:00;;;;;;;9.77;6.90;;;16.10;99.90;;;;;;4937553;29;20051;-82
2023/08/30 14:23:28;;;;;;;9.48;7.20;;;16.20;99.90;;;;;;4939505;29;20049;-82
2023/08/30 14:25:59;;;;;;;7.35;5.93;;;16.20;99.90;;;;;;4955655;29;20049;-85
2023/08/30 14:28:27;;;;;;;8.45;6.55;;;16.10;99.90;;;;;;4955203;29;20049;-82
2023/08/30 14:30:57;;;;;;;8.80;6.43;;;16.10;99.90;;;;;;4972014;28;20102;-83
2023/08/30 14:33:24;;;;;;;8.75;6.10;;;16.10;99.90;;;;;;4927642;29;20042;-85
2023/08/30 14:35:51;;;;;;;8.18;6.03;;;16.00;99.90;;;;;;4939930;29;20039;-82
2023/08/30 14:38:17;;;;;;;7.85;5.90;;;15.90;99.90;;;;;;4940316;28;20093;-84
2023/08/30 14:40:59;;;;;;;6.90;5.07;;;15.80;99.90;;;;;;4942810;28;20034;-82
2023/08/30 14:43:26;;;;;;;7.32;4.93;;;15.80;99.90;;;;;;4990294;28;20503;-82
2023/08/30 14:46:03;;;;;;;7.85;4.78;;;15.70;99.90;;;;;;4974619;28;20035;-85
2023/08/30 14:48:33;;;;;;;7.03;4.88;;;15.50;99.90;;;;;;4972459;28;20086;-82
2023/08/30 14:51:01;;;;;;;6.57;4.78;;;15.60;99.90;;;;;;4974773;28;20070;-82
2023/08/30 14:53:28;;;;;;;7.53;5.30;;;15.70;99.90;;;;;;4958417;28;20051;-84
2023/08/30 14:55:57;;;;;;;6.07;4.70;;;15.60;99.90;;;;;;4974139;28;20046;-82
2023/08/30 14:58:24;;;;;;;8.70;5.45;;;15.60;99.90;;;;;;4974092;28;20039;-82
2023/08/30 15:00:51;;;;;;;7.60;5.55;;;15.60;99.90;;;;;;4974741;28;20038;-81
2023/08/30 15:03:17;;;;;;;6.72;5.00;;;15.50;99.90;;;;;;4942522;28;20070;-82
2023/08/30 15:05:44;;;;;;;5.28;2.95;;;15.30;99.90;;;;;;4942747;28;20043;-82
2023/08/30 15:08:11;;;;;;;4.85;2.72;;;15.20;99.90;;;;;;4974155;28;20049;-81
2023/08/30 15:10:37;;;;;;;4.18;2.53;;;15.00;99.90;;;;;;4958402;28;20109;-82
2023/08/30 15:13:04;;;;;;;4.50;2.60;;;14.90;99.90;;;;;;4942898;28;20049;-82
2023/08/30 15:15:31;;;;;;;4.88;2.67;;;14.80;99.90;;;;;;4962810;28;20038;-81
2023/08/30 15:17:58;;;;;;;5.70;2.47;;;14.70;99.90;;;;;;4986566;28;20057;-82
2023/08/30 15:20:24;;;;;;;4.30;2.25;;;14.60;99.90;;;;;;4980070;28;20038;-81
2023/08/30 15:22:52;;;;;;;5.43;2.40;;;14.60;99.90;;;;;;4944262;28;20514;-81
2023/08/30 15:25:19;;;;;;;6.55;2.67;;;14.60;99.90;;;;;;4989740;28;20082;-79
2023/08/30 15:27:46;;;;;;;5.05;2.60;;;14.60;99.90;;;;;;4958600;28;20042;-83